Time;durP1;ratioP1;P1;durP2;ratioP2;P2;SDS_P1;SDS_P2;PMS_P1;PMS_P2;Temp;Humidity;BMP_temperature;BMP_pressure;BME280_temperature;BME280_humidity;BME280_pressure;Samples;Min_cycle;Max_cycle;Signal;HPM_P1;HPM_P2
2023/05/29 00:00:32;;;;;;;12.45;5.32;;;;;;;;;;5015590;28;20041;-64
2023/05/29 00:02:59;;;;;;;14.50;5.90;;;;;;;;;;5013176;28;20049;-64
2023/05/29 00:05:25;;;;;;;16.30;5.82;;;;;;;;;;5017027;28;20507;-65
2023/05/29 00:07:51;;;;;;;13.93;5.72;;;;;;;;;;4992689;28;20049;-64
2023/05/29 00:10:17;;;;;;;11.88;5.38;;;;;;;;;;5013138;28;20060;-63
2023/05/29 00:12:43;;;;;;;11.68;5.18;;;;;;;;;;5018909;28;20046;-64
2023/05/29 00:15:12;;;;;;;12.85;5.60;;;;;;;;;;5018935;28;20034;-64
2023/05/29 00:17:40;;;;;;;11.00;4.75;;;;;;;;;;5020356;28;20045;-64
2023/05/29 00:20:09;;;;;;;11.77;5.05;;;;;;;;;;5020572;28;20041;-64
2023/05/29 00:22:37;;;;;;;11.25;5.20;;;;;;;;;;5017742;28;20230;-64
2023/05/29 00:25:07;;;;;;;12.85;5.47;;;;;;;;;;5010167;28;20030;-64
2023/05/29 00:27:34;;;;;;;11.20;5.35;;;;;;;;;;4992637;28;20048;-64
2023/05/29 00:30:01;;;;;;;14.95;5.47;;;;;;;;;;5003758;28;20034;-64
2023/05/29 00:32:28;;;;;;;11.43;5.13;;;;;;;;;;5014832;28;20052;-64
2023/05/29 00:34:55;;;;;;;11.27;5.05;;;;;;;;;;5016151;28;20418;-64
2023/05/29 00:37:21;;;;;;;11.10;5.20;;;;;;;;;;4998658;28;20037;-64
2023/05/29 00:39:48;;;;;;;16.45;5.00;;;;;;;;;;4996111;28;20049;-64
2023/05/29 00:42:14;;;;;;;15.68;6.00;;;;;;;;;;5010641;28;20041;-64
2023/05/29 00:44:41;;;;;;;11.32;5.43;;;;;;;;;;5014774;28;20029;-64
2023/05/29 00:47:07;;;;;;;12.13;5.43;;;;;;;;;;5018269;28;20033;-63
2023/05/29 00:49:35;;;;;;;14.00;5.40;;;;;;;;;;5021562;28;20056;-63
2023/05/29 00:52:03;;;;;;;13.00;5.47;;;;;;;;;;5018672;28;20045;-64
2023/05/29 00:54:30;;;;;;;11.70;5.20;;;;;;;;;;5023572;28;20490;-64
2023/05/29 00:56:58;;;;;;;11.50;4.90;;;;;;;;;;5024703;28;20042;-64
2023/05/29 00:59:30;;;;;;;13.48;6.00;;;;;;;;;;5005562;28;20494;-64
2023/05/29 01:02:00;;;;;;;10.57;5.55;;;;;;;;;;5009619;28;20076;-63
2023/05/29 01:04:33;;;;;;;14.02;5.75;;;;;;;;;;5009361;28;20065;-64
2023/05/29 01:07:02;;;;;;;10.15;4.75;;;;;;;;;;5023457;28;20056;-63
2023/05/29 01:09:30;;;;;;;12.53;5.20;;;;;;;;;;5027107;28;20396;-63
2023/05/29 01:12:26;;;;;;;10.35;5.10;;;;;;;;;;5008641;28;20303;-63
2023/05/29 01:15:13;;;;;;;13.90;5.40;;;;;;;;;;5020091;28;20038;-63
2023/05/29 01:17:51;;;;;;;13.10;4.93;;;;;;;;;;5016622;28;20065;-64
2023/05/29 01:20:43;;;;;;;13.93;5.95;;;;;;;;;;5004422;28;20041;-63
2023/05/29 01:23:22;;;;;;;11.48;5.15;;;;;;;;;;5006614;28;20065;-63
2023/05/29 01:26:15;;;;;;;13.57;5.07;;;;;;;;;;5018415;28;20510;-60
2023/05/29 01:28:48;;;;;;;12.60;5.40;;;;;;;;;;5022310;28;20148;-64
2023/05/29 01:31:18;;;;;;;13.48;5.30;;;;;;;;;;5003597;28;20033;-64
2023/05/29 01:33:51;;;;;;;12.25;4.95;;;;;;;;;;5018498;28;20057;-64
2023/05/29 01:36:18;;;;;;;12.25;5.80;;;;;;;;;;5019625;28;20037;-63
2023/05/29 01:38:44;;;;;;;12.90;5.03;;;;;;;;;;5022601;28;20048;-61
2023/05/29 01:41:11;;;;;;;12.85;5.65;;;;;;;;;;4998320;28;20034;-63
2023/05/29 01:43:38;;;;;;;10.98;5.30;;;;;;;;;;5016179;28;20049;-64
2023/05/29 01:46:04;;;;;;;14.35;5.97;;;;;;;;;;5006221;28;20046;-64
2023/05/29 01:48:31;;;;;;;10.85;5.63;;;;;;;;;;5020992;28;20389;-64
2023/05/29 01:50:58;;;;;;;14.90;5.88;;;;;;;;;;5026461;28;20049;-62
2023/05/29 01:53:24;;;;;;;13.38;5.45;;;;;;;;;;5022035;28;20037;-63
2023/05/29 01:55:51;;;;;;;17.45;5.93;;;;;;;;;;4995655;28;20054;-62
2023/05/29 01:58:20;;;;;;;15.43;6.38;;;;;;;;;;4994445;28;20050;-64
2023/05/29 02:00:46;;;;;;;12.07;5.40;;;;;;;;;;5003474;28;20037;-64
2023/05/29 02:03:12;;;;;;;14.13;5.75;;;;;;;;;;5026410;28;20288;-63
2023/05/29 02:05:38;;;;;;;15.52;5.82;;;;;;;;;;4985344;28;20041;-63
2023/05/29 02:08:05;;;;;;;10.32;5.25;;;;;;;;;;4999365;28;20049;-63
2023/05/29 02:10:31;;;;;;;12.63;5.07;;;;;;;;;;5027226;28;20513;-64
2023/05/29 02:12:58;;;;;;;15.55;5.72;;;;;;;;;;5003095;28;20056;-64
2023/05/29 02:15:24;;;;;;;11.50;4.97;;;;;;;;;;5020964;28;20042;-63
2023/05/29 02:17:53;;;;;;;14.68;5.50;;;;;;;;;;4995009;28;20053;-63
2023/05/29 02:20:19;;;;;;;14.27;5.70;;;;;;;;;;5001805;28;20045;-64
2023/05/29 02:22:46;;;;;;;10.48;5.35;;;;;;;;;;4995730;28;20033;-62
2023/05/29 02:25:12;;;;;;;13.50;5.47;;;;;;;;;;4995686;28;20044;-64
2023/05/29 02:27:38;;;;;;;13.95;5.57;;;;;;;;;;5029007;28;20037;-64
2023/05/29 02:30:06;;;;;;;14.95;6.03;;;;;;;;;;5009531;28;20038;-63
2023/05/29 02:32:32;;;;;;;14.13;5.55;;;;;;;;;;4994183;28;20045;-63
2023/05/29 02:34:59;;;;;;;11.63;5.38;;;;;;;;;;4992203;28;20057;-63
2023/05/29 02:37:25;;;;;;;15.60;5.55;;;;;;;;;;4998166;28;20411;-63
2023/05/29 02:39:52;;;;;;;15.25;6.25;;;;;;;;;;5000380;28;20458;-63
2023/05/29 02:42:18;;;;;;;18.13;6.68;;;;;;;;;;5009397;28;20040;-62
2023/05/29 02:44:44;;;;;;;22.00;6.25;;;;;;;;;;5021439;28;20648;-64
2023/05/29 02:47:10;;;;;;;14.98;5.45;;;;;;;;;;4994575;28;20037;-64
2023/05/29 02:49:36;;;;;;;24.92;6.72;;;;;;;;;;5007628;28;20439;-63
2023/05/29 02:52:02;;;;;;;14.23;5.82;;;;;;;;;;4998614;28;20049;-61
2023/05/29 02:54:28;;;;;;;13.25;5.10;;;;;;;;;;5005915;28;20032;-63
2023/05/29 02:56:55;;;;;;;14.30;5.35;;;;;;;;;;5024708;28;20041;-64
2023/05/29 02:59:21;;;;;;;14.52;5.45;;;;;;;;;;5018658;28;20034;-63
2023/05/29 03:01:48;;;;;;;14.50;6.63;;;;;;;;;;5015660;28;20435;-63
2023/05/29 03:04:14;;;;;;;21.02;6.90;;;;;;;;;;5018021;28;20041;-63
2023/05/29 03:06:41;;;;;;;15.25;6.63;;;;;;;;;;4988827;28;20048;-63
2023/05/29 03:09:07;;;;;;;16.83;6.78;;;;;;;;;;5021505;28;20042;-63
2023/05/29 03:11:35;;;;;;;17.23;5.80;;;;;;;;;;5016635;28;20034;-62
2023/05/29 03:14:01;;;;;;;20.05;6.18;;;;;;;;;;4996727;28;20033;-62
2023/05/29 03:16:29;;;;;;;13.85;5.40;;;;;;;;;;4980486;28;20550;-62
2023/05/29 03:18:55;;;;;;;15.05;6.78;;;;;;;;;;5000272;28;20054;-63
2023/05/29 03:21:21;;;;;;;13.27;6.05;;;;;;;;;;4996025;28;20037;-63
2023/05/29 03:23:47;;;;;;;14.73;6.18;;;;;;;;;;4994179;28;20644;-63
2023/05/29 03:26:14;;;;;;;12.32;5.32;;;;;;;;;;4995100;28;20042;-63
2023/05/29 03:28:42;;;;;;;16.40;5.82;;;;;;;;;;4977971;28;20049;-63
2023/05/29 03:31:09;;;;;;;14.98;6.03;;;;;;;;;;5005751;28;20041;-62
2023/05/29 03:33:36;;;;;;;15.88;6.50;;;;;;;;;;5001998;28;20420;-63
2023/05/29 03:36:19;;;;;;;15.02;6.05;;;;;;;;;;5000911;28;20037;-62
2023/05/29 03:38:45;;;;;;;17.52;6.60;;;;;;;;;;5009349;28;20065;-61
2023/05/29 03:41:11;;;;;;;16.73;5.80;;;;;;;;;;5001080;28;20467;-62
2023/05/29 03:43:38;;;;;;;16.48;6.43;;;;;;;;;;5000109;28;20423;-62
2023/05/29 03:46:04;;;;;;;13.93;6.70;;;;;;;;;;5000651;28;20033;-63
2023/05/29 03:48:32;;;;;;;17.80;6.32;;;;;;;;;;5004658;28;20507;-63
2023/05/29 03:50:59;;;;;;;13.13;6.03;;;;;;;;;;5020379;28;20029;-61
2023/05/29 03:53:31;;;;;;;13.95;5.80;;;;;;;;;;4988667;28;20045;-63
2023/05/29 03:55:57;;;;;;;14.73;5.88;;;;;;;;;;4993035;28;20672;-63
2023/05/29 03:58:23;;;;;;;13.75;6.30;;;;;;;;;;4995526;28;20049;-63
2023/05/29 04:00:50;;;;;;;14.32;6.40;;;;;;;;;;4991859;28;20486;-63
2023/05/29 04:03:18;;;;;;;13.00;6.20;;;;;;;;;;5004842;28;20045;-63
2023/05/29 04:05:46;;;;;;;17.95;6.57;;;;;;;;;;4996318;28;20487;-63
2023/05/29 04:08:13;;;;;;;18.17;6.68;;;;;;;;;;5008406;28;20507;-63
2023/05/29 04:10:39;;;;;;;20.13;6.95;;;;;;;;;;5001111;28;20044;-63
2023/05/29 04:13:08;;;;;;;16.50;6.38;;;;;;;;;;5004808;28;20422;-63
2023/05/29 04:15:35;;;;;;;16.05;6.30;;;;;;;;;;5002207;28;20046;-62
2023/05/29 04:18:01;;;;;;;16.17;6.22;;;;;;;;;;5002141;28;20049;-64
2023/05/29 04:20:27;;;;;;;17.63;6.47;;;;;;;;;;4995472;28;20046;-63
2023/05/29 04:22:53;;;;;;;19.70;6.70;;;;;;;;;;4993993;28;20406;-63
2023/05/29 04:25:19;;;;;;;17.17;7.25;;;;;;;;;;4994592;28;20034;-63
2023/05/29 04:27:48;;;;;;;17.95;7.43;;;;;;;;;;5008274;28;20411;-63
2023/05/29 04:30:16;;;;;;;21.05;7.22;;;;;;;;;;4996547;28;20049;-63
2023/05/29 04:32:46;;;;;;;21.05;7.32;;;;;;;;;;5004745;28;20053;-63
2023/05/29 04:35:15;;;;;;;16.33;7.03;;;;;;;;;;4998986;28;20033;-62
2023/05/29 04:37:52;;;;;;;18.90;7.20;;;;;;;;;;4994215;28;20056;-63
2023/05/29 04:40:20;;;;;;;19.02;5.93;;;;;;;;;;5000976;28;20037;-63
2023/05/29 04:42:46;;;;;;;19.65;7.60;;;;;;;;;;5006247;28;20048;-63
2023/05/29 04:45:13;;;;;;;15.40;6.95;;;;;;;;;;4993870;28;20050;-62
2023/05/29 04:47:43;;;;;;;19.67;7.22;;;;;;;;;;5004625;28;20045;-62
2023/05/29 04:50:11;;;;;;;20.63;7.95;;;;;;;;;;5000452;28;20049;-61
2023/05/29 04:52:38;;;;;;;23.15;8.23;;;;;;;;;;5001260;28;20498;-63
2023/05/29 04:55:06;;;;;;;17.48;7.32;;;;;;;;;;4996064;28;20046;-63
2023/05/29 04:57:32;;;;;;;21.50;8.55;;;;;;;;;;4999052;28;20057;-64
2023/05/29 04:59:58;;;;;;;19.98;7.65;;;;;;;;;;5002586;28;20067;-63
2023/05/29 05:02:26;;;;;;;20.65;8.50;;;;;;;;;;4996376;28;20057;-63
2023/05/29 05:04:52;;;;;;;18.38;8.13;;;;;;;;;;5010173;28;20383;-63
2023/05/29 05:07:18;;;;;;;21.58;8.52;;;;;;;;;;5015688;28;20038;-60
2023/05/29 05:09:44;;;;;;;17.58;7.93;;;;;;;;;;5005286;28;20041;-60
2023/05/29 05:12:18;;;;;;;26.20;8.48;;;;;;;;;;4998912;28;20522;-60
2023/05/29 05:14:44;;;;;;;22.73;9.63;;;;;;;;;;5012418;28;20411;-59
2023/05/29 05:17:10;;;;;;;24.00;8.15;;;;;;;;;;4995773;28;20038;-60
2023/05/29 05:19:36;;;;;;;26.00;9.32;;;;;;;;;;4997758;28;20590;-59
2023/05/29 05:22:03;;;;;;;25.45;9.77;;;;;;;;;;5001739;28;20061;-58
2023/05/29 05:24:29;;;;;;;25.88;10.10;;;;;;;;;;4996820;28;20038;-60
2023/05/29 05:26:56;;;;;;;30.42;9.38;;;;;;;;;;5009138;28;20034;-60
2023/05/29 05:29:22;;;;;;;27.13;10.13;;;;;;;;;;5007419;28;20049;-59
2023/05/29 05:31:48;;;;;;;26.63;9.95;;;;;;;;;;5019967;28;20033;-59
2023/05/29 05:34:15;;;;;;;31.42;10.23;;;;;;;;;;4998256;28;20068;-60
2023/05/29 05:36:43;;;;;;;28.33;11.95;;;;;;;;;;5005674;28;20037;-60
2023/05/29 05:39:13;;;;;;;29.88;10.85;;;;;;;;;;4996036;28;20057;-59
2023/05/29 05:41:41;;;;;;;37.60;12.35;;;;;;;;;;4995464;28;20042;-59
2023/05/29 05:44:07;;;;;;;34.90;12.05;;;;;;;;;;5000578;28;20038;-60
2023/05/29 05:46:41;;;;;;;38.88;12.93;;;;;;;;;;5001919;28;20038;-59
2023/05/29 05:49:08;;;;;;;34.08;11.65;;;;;;;;;;5006877;28;20397;-57
2023/05/29 05:51:35;;;;;;;27.50;11.95;;;;;;;;;;4977533;28;20594;-59
2023/05/29 05:54:01;;;;;;;33.35;12.98;;;;;;;;;;4994915;28;20041;-60
2023/05/29 05:56:28;;;;;;;29.42;11.38;;;;;;;;;;5001925;28;20033;-59
2023/05/29 05:58:54;;;;;;;26.42;11.95;;;;;;;;;;5006620;28;20030;-60
2023/05/29 06:01:21;;;;;;;29.77;11.73;;;;;;;;;;5026141;28;20076;-59
2023/05/29 06:03:48;;;;;;;33.13;12.27;;;;;;;;;;4995345;28;20052;-58
2023/05/29 06:06:14;;;;;;;29.13;11.60;;;;;;;;;;4999271;28;20042;-59
2023/05/29 06:08:43;;;;;;;41.85;12.32;;;;;;;;;;4996375;28;20038;-59
2023/05/29 06:11:10;;;;;;;33.08;13.18;;;;;;;;;;5004891;28;20410;-60
2023/05/29 06:13:38;;;;;;;32.97;11.50;;;;;;;;;;5002563;28;20049;-59
2023/05/29 06:16:08;;;;;;;33.63;11.40;;;;;;;;;;5005504;28;20048;-60
2023/05/29 06:18:35;;;;;;;27.67;11.95;;;;;;;;;;4993857;28;20408;-59
2023/05/29 06:21:02;;;;;;;33.80;11.35;;;;;;;;;;4995438;28;20042;-59
2023/05/29 06:23:28;;;;;;;34.42;11.52;;;;;;;;;;4998628;28;20033;-59
2023/05/29 06:25:55;;;;;;;29.33;11.25;;;;;;;;;;5010075;28;20040;-60
2023/05/29 06:28:21;;;;;;;31.80;10.80;;;;;;;;;;5005903;28;20415;-60
2023/05/29 06:30:48;;;;;;;32.88;10.77;;;;;;;;;;5006131;28;20053;-59
2023/05/29 06:33:14;;;;;;;23.90;9.80;;;;;;;;;;4998433;28;20410;-59
2023/05/29 06:35:41;;;;;;;24.67;9.48;;;;;;;;;;4998069;28;20048;-58
2023/05/29 06:38:08;;;;;;;21.65;8.80;;;;;;;;;;4994723;28;20072;-58
2023/05/29 06:40:34;;;;;;;22.67;9.07;;;;;;;;;;5021901;28;20033;-60
2023/05/29 06:43:01;;;;;;;23.90;8.60;;;;;;;;;;5004620;28;20048;-59
2023/05/29 06:45:53;;;;;;;18.15;7.85;;;;;;;;;;4994537;28;20049;-59
2023/05/29 06:48:20;;;;;;;18.52;7.63;;;;;;;;;;5014712;28;20045;-59
2023/05/29 06:50:48;;;;;;;18.27;7.90;;;;;;;;;;5001924;28;20048;-60
2023/05/29 06:53:35;;;;;;;20.45;8.02;;;;;;;;;;5012367;28;20046;-60
2023/05/29 06:56:02;;;;;;;20.02;8.07;;;;;;;;;;4994684;28;20527;-60
2023/05/29 06:58:30;;;;;;;15.43;7.15;;;;;;;;;;5007051;28;20038;-59
2023/05/29 07:00:57;;;;;;;18.38;8.13;;;;;;;;;;4997770;28;20045;-60
2023/05/29 07:03:53;;;;;;;18.13;7.18;;;;;;;;;;5008896;28;20034;-59
2023/05/29 07:06:20;;;;;;;18.60;7.50;;;;;;;;;;4998668;28;20054;-59
2023/05/29 07:08:46;;;;;;;20.40;8.52;;;;;;;;;;5021218;28;20668;-59
2023/05/29 07:11:12;;;;;;;24.45;11.27;;;;;;;;;;5005286;28;20044;-59
2023/05/29 07:13:38;;;;;;;33.92;14.73;;;;;;;;;;4997909;28;20042;-58
2023/05/29 07:16:05;;;;;;;30.08;14.05;;;;;;;;;;5002305;28;20486;-59
2023/05/29 07:18:33;;;;;;;26.58;10.90;;;;;;;;;;5004344;28;20041;-59
2023/05/29 07:21:01;;;;;;;16.60;7.93;;;;;;;;;;4982072;28;20042;-59
2023/05/29 07:23:28;;;;;;;14.98;7.78;;;;;;;;;;4992640;28;20072;-60
2023/05/29 07:25:54;;;;;;;16.55;7.32;;;;;;;;;;5003764;28;20033;-60
2023/05/29 07:28:21;;;;;;;16.77;7.45;;;;;;;;;;4995537;28;20056;-60
2023/05/29 07:30:48;;;;;;;13.48;7.22;;;;;;;;;;4987866;28;20041;-59
2023/05/29 07:33:14;;;;;;;15.57;7.35;;;;;;;;;;5002989;28;20049;-59
2023/05/29 07:35:40;;;;;;;17.42;7.65;;;;;;;;;;5004255;28;20411;-59
2023/05/29 07:38:06;;;;;;;14.77;7.25;;;;;;;;;;4993890;28;20057;-61
2023/05/29 07:40:34;;;;;;;13.80;6.50;;;;;;;;;;5005833;28;20128;-58
2023/05/29 07:43:12;;;;;;;14.70;6.63;;;;;;;;;;5002931;28;20402;-61
2023/05/29 07:45:46;;;;;;;13.02;6.93;;;;;;;;;;4983005;28;20038;-60
2023/05/29 07:48:12;;;;;;;14.27;7.40;;;;;;;;;;5002260;28;20085;-60
2023/05/29 07:50:38;;;;;;;13.10;6.38;;;;;;;;;;5004614;28;20034;-60
2023/05/29 07:53:06;;;;;;;17.00;7.00;;;;;;;;;;5003671;28;20518;-60
2023/05/29 07:55:35;;;;;;;16.02;7.07;;;;;;;;;;5004874;28;20387;-59
2023/05/29 07:58:02;;;;;;;12.32;6.13;;;;;;;;;;4993164;28;20046;-61
2023/05/29 08:00:28;;;;;;;9.35;6.18;;;;;;;;;;5001153;28;20037;-59
2023/05/29 08:02:54;;;;;;;12.10;6.43;;;;;;;;;;4996861;28;20040;-60
2023/05/29 08:05:23;;;;;;;14.25;6.38;;;;;;;;;;5023543;28;20029;-60
2023/05/29 08:07:50;;;;;;;11.90;6.28;;;;;;;;;;5005498;28;20056;-59
2023/05/29 08:10:17;;;;;;;9.90;5.82;;;;;;;;;;5001333;28;20042;-59
2023/05/29 08:12:43;;;;;;;10.98;6.43;;;;;;;;;;4995887;28;20037;-60
2023/05/29 08:15:10;;;;;;;9.75;6.25;;;;;;;;;;4998099;28;20411;-60
2023/05/29 08:17:37;;;;;;;11.85;6.65;;;;;;;;;;4998835;28;20049;-60
2023/05/29 08:20:07;;;;;;;10.80;6.45;;;;;;;;;;5021346;28;20046;-59
2023/05/29 08:22:33;;;;;;;11.18;6.25;;;;;;;;;;5025372;28;20037;-60
2023/05/29 08:25:00;;;;;;;12.20;6.70;;;;;;;;;;5026455;28;20415;-59
2023/05/29 08:27:26;;;;;;;13.18;6.10;;;;;;;;;;5029713;28;20056;-59
2023/05/29 08:29:52;;;;;;;12.73;5.85;;;;;;;;;;5020262;28;20057;-60
2023/05/29 08:32:18;;;;;;;13.88;7.43;;;;;;;;;;5018947;28;20044;-59
2023/05/29 08:34:45;;;;;;;11.00;6.22;;;;;;;;;;5013342;28;20050;-60
2023/05/29 08:37:12;;;;;;;9.60;6.28;;;;;;;;;;5013798;28;20061;-60
2023/05/29 08:39:38;;;;;;;11.68;6.38;;;;;;;;;;5019779;28;20503;-60
2023/05/29 08:42:19;;;;;;;15.50;6.07;;;;;;;;;;5026960;28;20053;-60
2023/05/29 08:44:49;;;;;;;14.20;6.55;;;;;;;;;;5019904;28;20045;-61
2023/05/29 08:47:20;;;;;;;;;;;;;;;;;;4997526;28;20038;-60
2023/05/29 08:49:53;;;;;;;10.77;5.97;;;;;;;;;;5031765;28;20306;-60
2023/05/29 08:52:26;;;;;;;12.80;6.70;;;;;;;;;;5021951;28;20042;-60
2023/05/29 08:54:54;;;;;;;9.77;5.97;;;;;;;;;;5012038;28;20033;-61
2023/05/29 08:57:23;;;;;;;10.45;5.40;;;;;;;;;;5015864;28;20041;-60
2023/05/29 08:59:52;;;;;;;12.88;6.50;;;;;;;;;;5020767;28;20037;-61
2023/05/29 09:02:18;;;;;;;11.43;6.30;;;;;;;;;;5001481;28;20049;-60
2023/05/29 09:04:53;;;;;;;10.52;6.30;;;;;;;;;;5019439;28;20288;-59
2023/05/29 09:07:19;;;;;;;10.20;5.90;;;;;;;;;;5017862;28;20068;-59
2023/05/29 09:09:46;;;;;;;10.50;5.90;;;;;;;;;;5013918;28;20479;-59
2023/05/29 09:12:12;;;;;;;12.07;7.03;;;;;;;;;;5018968;28;20049;-60
2023/05/29 09:14:41;;;;;;;12.23;6.10;;;;;;;;;;5011507;28;20052;-60
2023/05/29 09:17:08;;;;;;;13.50;5.93;;;;;;;;;;5002401;28;20044;-59
2023/05/29 09:19:35;;;;;;;9.98;5.60;;;;;;;;;;5014918;28;20033;-60
2023/05/29 09:22:07;;;;;;;13.32;6.20;;;;;;;;;;5026163;28;20064;-59
2023/05/29 09:24:36;;;;;;;8.57;5.40;;;;;;;;;;5026328;28;20045;-60
2023/05/29 09:27:04;;;;;;;12.97;8.00;;;;;;;;;;5023172;28;20029;-60
2023/05/29 09:29:37;;;;;;;11.18;6.00;;;;;;;;;;5029657;28;20044;-60
2023/05/29 09:32:08;;;;;;;10.68;5.82;;;;;;;;;;5022421;28;20049;-60
2023/05/29 09:34:35;;;;;;;12.68;5.80;;;;;;;;;;5028146;28;20045;-60
2023/05/29 09:37:09;;;;;;;9.95;5.82;;;;;;;;;;5022467;28;20455;-60
2023/05/29 09:39:45;;;;;;;9.95;5.75;;;;;;;;;;5014112;28;20046;-59
2023/05/29 09:42:12;;;;;;;10.68;5.63;;;;;;;;;;5001643;28;20050;-60
2023/05/29 09:44:40;;;;;;;9.75;5.72;;;;;;;;;;5017748;28;20487;-60
2023/05/29 09:47:06;;;;;;;8.67;5.57;;;;;;;;;;5006977;28;20060;-61
2023/05/29 09:49:32;;;;;;;9.18;5.80;;;;;;;;;;5001770;28;20304;-61
2023/05/29 09:51:59;;;;;;;10.10;6.00;;;;;;;;;;5025765;28;20049;-60
2023/05/29 09:54:29;;;;;;;14.95;8.30;;;;;;;;;;5029243;28;20037;-60
2023/05/29 09:56:56;;;;;;;11.55;6.57;;;;;;;;;;5015127;28;20037;-61
2023/05/29 09:59:23;;;;;;;8.00;5.20;;;;;;;;;;5015489;28;20053;-60
2023/05/29 10:02:04;;;;;;;15.80;10.30;;;;;;;;;;5016407;28;20037;-61
2023/05/29 10:04:32;;;;;;;16.05;9.07;;;;;;;;;;5011253;28;20503;-61
2023/05/29 10:07:03;;;;;;;11.33;5.97;;;;;;;;;;4995027;28;20435;-60
2023/05/29 10:09:30;;;;;;;10.75;6.10;;;;;;;;;;5022558;28;20045;-61
2023/05/29 10:12:00;;;;;;;10.40;6.68;;;;;;;;;;5018188;28;20025;-61
2023/05/29 10:14:31;;;;;;;9.88;5.88;;;;;;;;;;5026883;28;20426;-61
2023/05/29 10:17:01;;;;;;;12.40;6.13;;;;;;;;;;5027259;28;20103;-61
2023/05/29 10:19:29;;;;;;;11.20;6.22;;;;;;;;;;5011954;28;22018;-61
2023/05/29 10:21:57;;;;;;;12.43;6.05;;;;;;;;;;5022497;28;20029;-61
2023/05/29 10:24:24;;;;;;;10.70;6.65;;;;;;;;;;5023995;28;20033;-61
2023/05/29 10:26:52;;;;;;;11.98;5.53;;;;;;;;;;5001665;28;20041;-61
2023/05/29 10:29:48;;;;;;;12.00;5.37;;;;;;;;;;5021180;28;20040;-61
2023/05/29 10:32:53;;;;;;;9.40;5.10;;;;;;;;;;5011372;28;20049;-61
2023/05/29 10:35:36;;;;;;;11.77;5.13;;;;;;;;;;5021109;28;20034;-60
2023/05/29 10:38:19;;;;;;;9.63;4.95;;;;;;;;;;5000246;28;20037;-61
2023/05/29 10:40:45;;;;;;;7.78;4.85;;;;;;;;;;5017756;28;20446;-61
2023/05/29 10:43:31;;;;;;;8.23;5.47;;;;;;;;;;5014159;28;20037;-61
2023/05/29 10:45:57;;;;;;;9.73;4.97;;;;;;;;;;5020515;28;20040;-61
2023/05/29 10:48:28;;;;;;;10.73;5.75;;;;;;;;;;5001702;28;20030;-61
2023/05/29 10:50:55;;;;;;;7.95;4.88;;;;;;;;;;5017197;28;20048;-62
2023/05/29 10:53:26;;;;;;;9.73;4.95;;;;;;;;;;5013659;28;20029;-60
2023/05/29 10:55:53;;;;;;;9.30;4.90;;;;;;;;;;5021197;28;20053;-60
2023/05/29 10:58:24;;;;;;;12.60;5.00;;;;;;;;;;4996313;28;20504;-60
2023/05/29 11:00:54;;;;;;;12.27;7.47;;;;;;;;;;5003132;28;20578;-60
2023/05/29 11:03:25;;;;;;;10.73;5.10;;;;;;;;;;4984361;28;20549;-60
2023/05/29 11:05:58;;;;;;;9.63;4.97;;;;;;;;;;5015785;28;20044;-61
2023/05/29 11:08:45;;;;;;;10.88;5.05;;;;;;;;;;5019408;28;20529;-61
2023/05/29 11:11:13;;;;;;;8.20;5.25;;;;;;;;;;5013176;28;20503;-60
2023/05/29 11:13:44;;;;;;;12.10;5.60;;;;;;;;;;5023826;28;20034;-59
2023/05/29 11:16:13;;;;;;;8.40;5.07;;;;;;;;;;5014634;28;20411;-61
2023/05/29 11:18:47;;;;;;;9.07;5.63;;;;;;;;;;5000778;28;20030;-60
2023/05/29 11:21:30;;;;;;;8.05;4.95;;;;;;;;;;5020489;28;20033;-61
2023/05/29 11:24:06;;;;;;;12.43;5.18;;;;;;;;;;5010477;28;20037;-60
2023/05/29 11:26:32;;;;;;;9.38;5.07;;;;;;;;;;4994772;28;20045;-60
2023/05/29 11:29:11;;;;;;;8.25;4.78;;;;;;;;;;5022784;28;20046;-62
2023/05/29 11:31:39;;;;;;;;;;;;;;;;;;5020321;28;20045;-62
2023/05/29 11:34:09;;;;;;;8.00;4.80;;;;;;;;;;5024378;28;20385;-62
2023/05/29 11:36:37;;;;;;;9.13;5.00;;;;;;;;;;5025661;28;20038;-62
2023/05/29 11:39:04;;;;;;;9.47;5.23;;;;;;;;;;5025586;28;20041;-62
2023/05/29 11:41:30;;;;;;;9.23;5.22;;;;;;;;;;4996784;28;20042;-62
2023/05/29 11:43:58;;;;;;;8.55;5.22;;;;;;;;;;5017593;28;20033;-62
2023/05/29 11:46:26;;;;;;;8.80;5.13;;;;;;;;;;5013969;28;20403;-62
2023/05/29 11:48:52;;;;;;;7.90;4.78;;;;;;;;;;5013497;28;20052;-62
2023/05/29 11:51:18;;;;;;;8.55;4.82;;;;;;;;;;5012540;28;20037;-62
2023/05/29 11:53:47;;;;;;;10.95;5.93;;;;;;;;;;5019384;28;20036;-62
2023/05/29 11:56:13;;;;;;;12.15;5.40;;;;;;;;;;5023160;28;20033;-62
2023/05/29 11:58:40;;;;;;;8.77;5.28;;;;;;;;;;5016923;28;20041;-61
2023/05/29 12:01:08;;;;;;;10.38;6.20;;;;;;;;;;5019120;28;20034;-62
2023/05/29 12:03:39;;;;;;;8.82;5.18;;;;;;;;;;5009685;28;20034;-61
2023/05/29 12:06:06;;;;;;;7.05;4.50;;;;;;;;;;5025544;28;20049;-62
2023/05/29 12:08:33;;;;;;;9.70;4.38;;;;;;;;;;5022404;28;20529;-62
2023/05/29 12:10:59;;;;;;;9.32;4.70;;;;;;;;;;5008295;28;20045;-62
2023/05/29 12:13:25;;;;;;;7.95;4.10;;;;;;;;;;5003699;28;20053;-62
2023/05/29 12:15:55;;;;;;;9.63;4.65;;;;;;;;;;5015072;28;20502;-62
2023/05/29 12:18:21;;;;;;;7.05;4.72;;;;;;;;;;5019412;28;20411;-62
2023/05/29 12:20:47;;;;;;;8.98;4.22;;;;;;;;;;5021225;28;20036;-61
2023/05/29 12:23:14;;;;;;;11.20;7.18;;;;;;;;;;5021935;28;20426;-62
2023/05/29 12:25:40;;;;;;;8.23;4.63;;;;;;;;;;5020659;28;20033;-63
2023/05/29 12:28:06;;;;;;;7.70;4.13;;;;;;;;;;5016844;28;20061;-62
2023/05/29 12:30:37;;;;;;;9.38;4.57;;;;;;;;;;5009546;28;20037;-62
2023/05/29 12:33:04;;;;;;;6.57;4.07;;;;;;;;;;5011247;28;20037;-63
2023/05/29 12:35:30;;;;;;;8.38;4.32;;;;;;;;;;4992658;28;20046;-63
2023/05/29 12:37:59;;;;;;;8.60;4.88;;;;;;;;;;4996184;28;20042;-62
2023/05/29 12:40:27;;;;;;;10.45;4.70;;;;;;;;;;5024451;28;20040;-62
2023/05/29 12:43:13;;;;;;;9.40;4.75;;;;;;;;;;5018233;28;20049;-62
2023/05/29 12:45:40;;;;;;;11.40;5.45;;;;;;;;;;4999987;28;20519;-63
2023/05/29 12:48:07;;;;;;;10.90;4.75;;;;;;;;;;5002941;28;20038;-62
2023/05/29 12:50:38;;;;;;;8.30;4.55;;;;;;;;;;5017960;28;20415;-62
2023/05/29 12:53:07;;;;;;;12.13;4.82;;;;;;;;;;4997629;28;20048;-63
2023/05/29 12:55:38;;;;;;;8.27;4.25;;;;;;;;;;5016588;28;20050;-63
2023/05/29 12:58:10;;;;;;;7.32;4.38;;;;;;;;;;5014227;28;20041;-63
2023/05/29 13:00:38;;;;;;;9.10;4.95;;;;;;;;;;5019768;28;20033;-64
2023/05/29 13:03:05;;;;;;;;;;;;;;;;;;5017952;28;20054;-63
2023/05/29 13:05:32;;;;;;;11.02;5.03;;;;;;;;;;5024439;28;19916;-63
2023/05/29 13:07:58;;;;;;;8.20;4.00;;;;;;;;;;5025134;28;20414;-63
2023/05/29 13:10:27;;;;;;;8.77;4.30;;;;;;;;;;5027631;28;20037;-62
2023/05/29 13:12:54;;;;;;;7.20;4.63;;;;;;;;;;5030087;28;20045;-62
2023/05/29 13:15:22;;;;;;;7.90;4.63;;;;;;;;;;5019398;28;20204;-62
2023/05/29 13:17:49;;;;;;;9.70;5.90;;;;;;;;;;5021583;28;20029;-63
2023/05/29 13:20:15;;;;;;;10.10;4.90;;;;;;;;;;5024172;28;20038;-63
2023/05/29 13:22:44;;;;;;;10.57;5.20;;;;;;;;;;5000416;28;20043;-62
2023/05/29 13:25:12;;;;;;;6.90;4.65;;;;;;;;;;5021859;28;20033;-63
2023/05/29 13:27:41;;;;;;;6.93;4.50;;;;;;;;;;5022897;28;20053;-63
2023/05/29 13:30:09;;;;;;;9.55;5.30;;;;;;;;;;5023272;28;20057;-63
2023/05/29 13:32:35;;;;;;;9.80;4.65;;;;;;;;;;4996106;28;20046;-63
2023/05/29 13:35:01;;;;;;;7.63;4.60;;;;;;;;;;5015950;28;20041;-63
2023/05/29 13:37:28;;;;;;;7.97;4.60;;;;;;;;;;5025055;28;20037;-63
2023/05/29 13:39:54;;;;;;;8.25;4.45;;;;;;;;;;5024929;28;20406;-63
2023/05/29 13:42:21;;;;;;;10.85;4.82;;;;;;;;;;5022613;28;20037;-63
2023/05/29 13:44:48;;;;;;;7.65;4.97;;;;;;;;;;5019313;28;20037;-62
2023/05/29 13:47:14;;;;;;;9.65;5.07;;;;;;;;;;5024372;28;20445;-63
2023/05/29 13:49:41;;;;;;;9.63;5.30;;;;;;;;;;5019390;28;20065;-63
2023/05/29 13:52:07;;;;;;;8.48;5.10;;;;;;;;;;5020184;28;20521;-62
2023/05/29 13:54:35;;;;;;;10.25;5.05;;;;;;;;;;5019025;28;20034;-62
2023/05/29 13:57:03;;;;;;;10.48;4.63;;;;;;;;;;5002596;28;20430;-62
2023/05/29 13:59:30;;;;;;;8.10;4.93;;;;;;;;;;5015964;28;20136;-62
2023/05/29 14:01:56;;;;;;;10.47;5.00;;;;;;;;;;5010721;28;20030;-62
2023/05/29 14:04:23;;;;;;;9.77;5.25;;;;;;;;;;5012921;28;20053;-62
2023/05/29 14:06:49;;;;;;;9.80;4.35;;;;;;;;;;4999504;28;20041;-62
2023/05/29 14:09:15;;;;;;;8.55;4.75;;;;;;;;;;5028782;28;20526;-62
2023/05/29 14:11:42;;;;;;;8.13;5.20;;;;;;;;;;5006242;28;20046;-62
2023/05/29 14:14:08;;;;;;;8.98;5.07;;;;;;;;;;5026376;28;20079;-62
2023/05/29 14:16:34;;;;;;;11.60;5.57;;;;;;;;;;4997515;28;20034;-62
2023/05/29 14:19:00;;;;;;;8.70;5.25;;;;;;;;;;5011429;28;20026;-62
2023/05/29 14:21:27;;;;;;;10.90;5.97;;;;;;;;;;5012597;28;20046;-62
2023/05/29 14:23:53;;;;;;;8.20;4.95;;;;;;;;;;5022182;28;20049;-64
2023/05/29 14:26:19;;;;;;;8.20;4.75;;;;;;;;;;5025227;28;20040;-63
2023/05/29 14:28:45;;;;;;;9.63;4.55;;;;;;;;;;5023481;28;20045;-62
2023/05/29 14:31:11;;;;;;;12.57;5.10;;;;;;;;;;5017922;28;20058;-61
2023/05/29 14:33:37;;;;;;;9.15;5.38;;;;;;;;;;5015201;28;20037;-63
2023/05/29 14:36:03;;;;;;;7.68;5.10;;;;;;;;;;5021626;28;20395;-62
2023/05/29 14:38:30;;;;;;;8.75;4.93;;;;;;;;;;5015405;28;20507;-63
2023/05/29 14:40:56;;;;;;;10.23;5.63;;;;;;;;;;5019115;28;20426;-63